Time;durP1;ratioP1;P1;durP2;ratioP2;P2;SDS_P1;SDS_P2;PMS_P1;PMS_P2;Temp;Humidity;BMP_temperature;BMP_pressure;BME280_temperature;BME280_humidity;BME280_pressure;Samples;Min_cycle;Max_cycle;Signal;HPM_P1;HPM_P2
2024/04/06 00:00:14;;;;;;;1.67;1.10;;;;;;;11.65;50.32;96913.00;5111710;28;20235;-92
2024/04/06 00:02:41;;;;;;;1.67;1.30;;;;;;;11.34;52.20;96915.22;5096571;28;20536;-93
2024/04/06 00:05:09;;;;;;;2.20;1.33;;;;;;;11.17;53.18;96920.97;5095787;28;20204;-92
2024/04/06 00:07:36;;;;;;;1.67;1.40;;;;;;;10.89;53.44;96874.63;5096640;28;20655;-92
2024/04/06 00:10:02;;;;;;;1.80;1.20;;;;;;;11.46;51.70;96928.97;5097545;28;20203;-93
2024/04/06 00:12:31;;;;;;;3.10;1.30;;;;;;;11.55;50.83;96913.13;5096914;28;20212;-92
2024/04/06 00:14:57;;;;;;;1.43;1.33;;;;;;;11.14;52.26;96929.53;5095810;28;20196;-92
2024/04/06 00:17:23;;;;;;;1.30;1.20;;;;;;;11.09;52.58;96931.47;5097362;28;20203;-92
2024/04/06 00:19:49;;;;;;;1.10;1.10;;;;;;;11.18;52.65;96933.22;5116617;28;20263;-92
2024/04/06 00:22:16;;;;;;;3.20;1.60;;;;;;;11.16;52.47;96935.38;5116681;28;20629;-92
2024/04/06 00:24:42;;;;;;;2.00;1.80;;;;;;;11.22;52.21;96928.13;5112819;28;20206;-92
2024/04/06 00:27:08;;;;;;;2.30;1.83;;;;;;;11.16;52.13;96915.94;5095468;28;20199;-92
2024/04/06 00:29:36;;;;;;;2.50;1.67;;;;;;;11.07;51.25;96877.66;5095853;28;20644;-93
2024/04/06 00:32:03;;;;;;;1.70;1.60;;;;;;;11.52;51.33;96919.81;5094824;28;20207;-92
2024/04/06 00:34:28;;;;;;;4.03;1.80;;;;;;;11.72;50.88;96926.00;5115174;28;20670;-91
2024/04/06 00:36:56;;;;;;;3.80;1.80;;;;;;;11.65;52.06;96934.31;5106462;28;20206;-93
2024/04/06 00:39:22;;;;;;;2.50;2.30;;;;;;;11.76;50.55;96927.00;5115212;28;20682;-92
2024/04/06 00:41:49;;;;;;;2.43;1.90;;;;;;;11.64;51.18;96931.97;5115811;28;20192;-92
2024/04/06 00:44:16;;;;;;;2.87;2.23;;;;;;;11.62;50.79;96904.81;5116454;28;20532;-92
2024/04/06 00:46:44;;;;;;;6.67;2.53;;;;;;;11.09;51.13;96838.22;5101458;28;20226;-94
2024/04/06 00:49:10;;;;;;;3.37;2.33;;;;;;;11.56;51.19;96924.59;5102926;28;20211;-94
2024/04/06 00:51:37;;;;;;;2.27;2.07;;;;;;;11.47;51.03;96925.22;5112931;28;20201;-93
2024/04/06 00:54:03;;;;;;;3.60;2.20;;;;;;;11.39;51.97;96933.81;5095926;28;20200;-94
2024/04/06 00:56:30;;;;;;;3.87;1.53;;;;;;;11.40;52.07;96940.75;5113040;28;20585;-93
2024/04/06 00:58:56;;;;;;;1.90;1.50;;;;;;;11.31;52.66;96937.13;5115539;28;20243;-95
2024/04/06 01:01:23;;;;;;;4.37;1.90;;;;;;;11.40;51.70;96907.97;5115257;28;20612;-93
2024/04/06 01:03:50;;;;;;;1.90;1.63;;;;;;;11.45;51.22;96926.56;5105719;28;20204;-93
2024/04/06 01:06:17;;;;;;;1.50;1.40;;;;;;;11.37;51.64;96925.31;5095167;28;20204;-93
2024/04/06 01:08:43;;;;;;;2.07;1.80;;;;;;;10.99;52.13;96909.16;5103363;28;20219;-94
2024/04/06 01:11:09;;;;;;;2.53;1.40;;;;;;;11.10;53.18;96925.84;5106737;28;20219;-93
2024/04/06 01:13:35;;;;;;;2.80;1.50;;;;;;;10.89;53.40;96916.44;5115580;28;20210;-94
2024/04/06 01:16:02;;;;;;;2.27;1.40;;;;;;;10.83;53.76;96918.34;5105450;28;20614;-93
2024/04/06 01:18:28;;;;;;;2.67;1.40;;;;;;;10.57;53.69;96869.03;5095379;28;20200;-93
2024/04/06 01:20:58;;;;;;;2.77;1.60;;;;;;;10.85;53.23;96900.25;5110684;28;20204;-93
2024/04/06 01:23:24;;;;;;;1.20;1.10;;;;;;;10.97;52.79;96905.97;5114907;28;20272;-93
2024/04/06 01:25:52;;;;;;;2.40;1.70;;;;;;;11.03;52.58;96904.06;5101259;28;20298;-93
2024/04/06 01:28:18;;;;;;;4.63;1.97;;;;;;;11.01;52.55;96890.25;5103214;28;20215;-93
2024/04/06 01:30:45;;;;;;;3.20;1.60;;;;;;;11.06;52.41;96898.16;5116146;28;20558;-93
2024/04/06 01:33:11;;;;;;;3.33;2.33;;;;;;;10.84;53.01;96885.34;5105251;28;20199;-93
2024/04/06 01:35:38;;;;;;;4.20;2.73;;;;;;;10.51;53.20;96845.13;5097659;28;20210;-93
2024/04/06 01:38:03;;;;;;;5.00;3.67;;;;;;;10.93;52.70;96881.00;5114659;28;20215;-93
2024/04/06 01:40:31;;;;;;;5.70;3.77;;;;;;;10.57;53.91;96877.84;5115697;28;20204;-93
2024/04/06 01:42:58;;;;;;;3.93;3.10;;;;;;;10.60;53.71;96879.13;5103969;28;20215;-94
2024/04/06 01:45:25;;;;;;;4.73;4.20;;;;;;;10.62;53.62;96863.69;5098872;28;20282;-93
2024/04/06 01:47:51;;;;;;;4.30;3.37;;;;;;;10.61;53.85;96876.22;5106778;28;20580;-93
2024/04/06 01:50:18;;;;;;;5.67;5.17;;;;;;;10.65;54.20;96890.56;5094958;28;20196;-93
2024/04/06 01:52:44;;;;;;;5.83;4.30;;;;;;;10.51;53.50;96841.69;5107337;28;20211;-93
2024/04/06 01:55:10;;;;;;;7.07;4.77;;;;;;;10.85;53.36;96886.94;5114020;28;20223;-92
2024/04/06 01:57:36;;;;;;;6.37;4.30;;;;;;;10.86;53.74;96877.84;5114589;28;20199;-93
2024/04/06 02:00:08;;;;;;;6.07;4.13;;;;;;;11.04;52.76;96875.56;5099188;28;20585;-93
2024/04/06 02:02:34;;;;;;;4.23;3.40;;;;;;;10.76;52.53;96838.00;5093473;28;20227;-93
2024/04/06 02:05:01;;;;;;;4.03;3.27;;;;;;;10.74;52.83;96851.59;5098661;28;20616;-93
2024/04/06 02:07:26;;;;;;;5.07;2.80;;;;;;;10.96;53.13;96872.44;5106519;28;20204;-93
2024/04/06 02:09:53;;;;;;;3.97;2.33;;;;;;;11.18;52.61;96893.25;5112888;28;20724;-93
2024/04/06 02:12:19;;;;;;;2.67;2.23;;;;;;;11.05;52.21;96858.50;5100349;28;20211;-93
2024/04/06 02:14:47;;;;;;;4.73;2.80;;;;;;;11.01;52.51;96876.91;5110238;28;20191;-94
2024/04/06 02:17:16;;;;;;;3.27;2.50;;;;;;;10.76;53.40;96873.44;5094281;28;20291;-93
2024/04/06 02:19:42;;;;;;;5.30;2.40;;;;;;;10.89;53.44;96879.16;5093690;28;20203;-94
2024/04/06 02:22:08;;;;;;;2.97;2.67;;;;;;;10.82;53.48;96881.34;5109750;28;20192;-93
2024/04/06 02:24:36;;;;;;;3.87;2.87;;;;;;;10.81;53.21;96877.13;5093516;28;20207;-94
2024/04/06 02:27:03;;;;;;;5.90;3.47;;;;;;;10.71;53.68;96884.09;5101420;28;20286;-92
2024/04/06 02:29:30;;;;;;;3.80;3.30;;;;;;;10.88;54.26;96902.34;5094504;28;20215;-93
2024/04/06 02:31:57;;;;;;;4.30;3.10;;;;;;;10.86;54.31;96887.72;5107827;28;20192;-94
2024/04/06 02:34:26;;;;;;;4.03;2.50;;;;;;;11.02;53.68;96905.13;5114287;28;20218;-93
2024/04/06 02:36:52;;;;;;;4.17;2.87;;;;;;;10.92;54.54;96906.03;5101624;28;20203;-94
2024/04/06 02:39:18;;;;;;;5.53;3.40;;;;;;;10.77;55.21;96895.50;5108989;28;20714;-94
2024/04/06 02:41:45;;;;;;;3.60;3.30;;;;;;;10.77;55.20;96895.50;5103430;28;20208;-94
2024/04/06 02:44:11;;;;;;;4.40;3.43;;;;;;;10.80;53.94;96894.94;5096555;28;20240;-94
2024/04/06 02:46:38;;;;;;;6.73;4.33;;;;;;;10.39;54.14;96855.34;5113562;28;20207;-94
2024/04/06 02:49:04;;;;;;;4.97;3.80;;;;;;;10.37;54.54;96852.16;5113205;28;20241;-94
2024/04/06 02:51:32;;;;;;;4.70;3.30;;;;;;;10.60;54.33;96855.97;5099908;28;20575;-94
2024/04/06 02:53:58;;;;;;;4.40;3.80;;;;;;;10.62;54.52;96893.78;5109503;28;20199;-94
2024/04/06 02:56:25;;;;;;;5.53;3.40;;;;;;;10.67;54.74;96884.94;5113552;28;20566;-95
2024/04/06 02:58:51;;;;;;;7.37;3.40;;;;;;;10.78;54.21;96881.91;5113131;28;20195;-93
2024/04/06 03:01:18;;;;;;;4.13;3.53;;;;;;;10.43;54.51;96815.69;5095991;28;20716;-94
2024/04/06 03:03:44;;;;;;;5.07;3.77;;;;;;;10.62;54.97;96877.00;5095714;28;20260;-94
2024/04/06 03:06:10;;;;;;;5.50;3.93;;;;;;;10.67;54.93;96861.78;5113192;28;20199;-93
2024/04/06 03:08:38;;;;;;;6.80;4.40;;;;;;;10.61;54.37;96824.81;5095116;28;20215;-94
2024/04/06 03:11:05;;;;;;;5.20;3.93;;;;;;;10.92;54.38;96882.06;5095808;28;20646;-96
2024/04/06 03:13:31;;;;;;;5.13;4.33;;;;;;;10.76;55.02;96862.78;5113174;28;20249;-96
2024/04/06 03:15:57;;;;;;;6.03;4.40;;;;;;;10.90;54.14;96870.09;5095167;28;20198;-95
2024/04/06 03:18:23;;;;;;;6.70;4.40;;;;;;;10.72;55.54;96859.06;5113467;28;20202;-93
2024/04/06 03:20:50;;;;;;;5.27;3.77;;;;;;;10.91;54.73;96880.47;5113491;28;20215;-93
2024/04/06 03:23:16;;;;;;;6.90;4.50;;;;;;;10.73;55.22;96887.28;5110624;28;20195;-93
2024/04/06 03:25:44;;;;;;;6.10;5.10;;;;;;;10.66;55.71;96881.50;5092447;28;20214;-93
2024/04/06 03:28:10;;;;;;;7.87;4.37;;;;;;;10.61;56.37;96881.53;5101635;28;20264;-93
2024/04/06 03:30:37;;;;;;;4.90;4.27;;;;;;;10.65;55.65;96869.25;5113164;28;20645;-93
2024/04/06 03:33:03;;;;;;;6.13;5.07;;;;;;;10.48;55.73;96885.59;5113047;28;20206;-94
2024/04/06 03:35:31;;;;;;;8.37;5.67;;;;;;;10.69;55.04;96896.91;5094767;28;20633;-93
2024/04/06 03:37:58;;;;;;;7.27;5.47;;;;;;;10.76;55.36;96904.56;5111960;28;20205;-95
2024/04/06 03:40:24;;;;;;;8.53;4.73;;;;;;;10.78;55.24;96895.22;5105241;28;20192;-93
2024/04/06 03:43:00;;;;;;;9.13;4.77;;;;;;;10.94;54.96;96903.88;5111023;28;20225;-94
2024/04/06 03:45:26;;;;;;;7.20;5.13;;;;;;;10.37;55.51;96870.78;5092454;28;20689;-93
2024/04/06 03:47:53;;;;;;;9.33;4.83;;;;;;;10.59;55.93;96898.84;5092238;28;20204;-92
2024/04/06 03:50:20;;;;;;;5.53;4.00;;;;;;;10.78;55.88;96897.09;5092254;28;20693;-93
2024/04/06 03:52:47;;;;;;;5.23;3.90;;;;;;;10.69;55.76;96904.09;5100693;28;20220;-95
2024/04/06 03:55:13;;;;;;;5.57;3.80;;;;;;;10.37;56.03;96840.72;5113541;28;20202;-94
2024/04/06 03:57:40;;;;;;;5.60;4.20;;;;;;;10.63;55.93;96907.88;5092482;28;20229;-93
2024/04/06 04:00:09;;;;;;;5.20;4.30;;;;;;;10.70;55.36;96905.69;5092250;28;20234;-92
2024/04/06 04:02:37;;;;;;;4.63;3.70;;;;;;;10.55;55.68;96866.66;5094749;28;20260;-85
2024/04/06 04:05:04;;;;;;;3.83;3.40;;;;;;;10.57;55.62;96843.25;5111738;28;20665;-85
2024/04/06 04:07:32;;;;;;;4.50;3.00;;;;;;;10.84;55.30;96890.66;5110769;28;20203;-84
2024/04/06 04:10:01;;;;;;;8.13;3.43;;;;;;;11.02;55.76;96903.25;5095768;28;20208;-84
2024/04/06 04:12:28;;;;;;;4.47;3.90;;;;;;;11.09;55.61;96902.16;5098824;28;20204;-84
2024/04/06 04:14:54;;;;;;;4.30;2.93;;;;;;;11.00;55.48;96878.78;5094381;28;20211;-92
2024/04/06 04:17:22;;;;;;;10.60;9.47;;;;;;;11.00;56.49;96904.63;5098459;28;20202;-93
2024/04/06 04:19:48;;;;;;;4.83;4.43;;;;;;;10.85;57.44;96892.25;5091721;28;20204;-95
2024/04/06 04:22:16;;;;;;;3.37;3.03;;;;;;;11.07;56.64;96904.28;5098540;28;20207;-94
2024/04/06 04:24:42;;;;;;;5.30;3.93;;;;;;;11.14;56.48;96886.09;5113803;28;20210;-94
2024/04/06 04:27:09;;;;;;;5.73;3.60;;;;;;;10.91;56.82;96851.16;5097584;28;20202;-92
2024/04/06 04:29:36;;;;;;;4.07;3.20;;;;;;;11.22;56.05;96914.81;5110852;28;20283;-93
2024/04/06 04:32:03;;;;;;;3.43;2.87;;;;;;;11.24;56.04;96915.31;5095655;28;20265;-92
2024/04/06 04:34:32;;;;;;;4.27;2.67;;;;;;;11.00;56.94;96904.63;5095129;28;20211;-92
2024/04/06 04:36:58;;;;;;;3.80;3.10;;;;;;;11.03;56.90;96909.38;5094914;28;20204;-92
2024/04/06 04:39:25;;;;;;;2.77;2.40;;;;;;;11.00;56.82;96896.66;5105833;28;20666;-93
2024/04/06 04:41:51;;;;;;;3.97;2.53;;;;;;;11.09;56.44;96905.59;5102654;28;20204;-92
2024/04/06 04:44:18;;;;;;;4.53;3.33;;;;;;;11.14;56.04;96918.88;5095173;28;20724;-93
2024/04/06 04:46:44;;;;;;;5.47;3.53;;;;;;;11.11;55.98;96918.63;5095161;28;20655;-92
2024/04/06 04:49:10;;;;;;;4.27;3.00;;;;;;;11.22;56.00;96915.59;5095330;28;20216;-92
2024/04/06 04:51:38;;;;;;;5.23;3.77;;;;;;;11.23;55.49;96903.09;5095274;28;20222;-93
2024/04/06 04:54:08;;;;;;;5.17;4.20;;;;;;;11.11;56.26;96916.78;5106173;28;20208;-92
2024/04/06 04:56:33;;;;;;;9.37;5.00;;;;;;;11.07;56.84;96923.72;5110969;28;20224;-93
2024/04/06 04:59:00;;;;;;;11.53;7.70;;;;;;;11.01;58.05;96914.22;5103813;28;20602;-93
2024/04/06 05:01:28;;;;;;;11.07;8.60;;;;;;;11.01;58.08;96922.19;5115326;28;20265;-93
2024/04/06 05:03:55;;;;;;;8.70;5.80;;;;;;;11.17;55.67;96925.50;5107672;28;20289;-93
2024/04/06 05:06:21;;;;;;;12.00;8.47;;;;;;;11.25;56.24;96916.91;5114438;28;20214;-92
2024/04/06 05:08:49;;;;;;;7.57;5.60;;;;;;;11.42;55.50;96927.13;5115716;28;20654;-93
2024/04/06 05:11:16;;;;;;;5.43;4.20;;;;;;;11.34;55.60;96914.41;5100607;28;20663;-93
2024/04/06 05:13:43;;;;;;;4.70;3.67;;;;;;;11.44;53.96;96912.44;5115630;28;20293;-93
2024/04/06 05:16:09;;;;;;;4.73;3.60;;;;;;;11.51;53.88;96914.78;5100836;28;20204;-92
2024/04/06 05:18:35;;;;;;;4.97;3.50;;;;;;;11.49;53.48;96899.06;5095501;28;20258;-93
2024/04/06 05:21:01;;;;;;;281.40;142.10;;;;;;;11.86;52.77;96923.47;5094803;28;20219;-93
2024/04/06 05:23:29;;;;;;;87.67;46.10;;;;;;;11.88;54.95;96913.31;5095068;28;20659;-94
2024/04/06 05:25:56;;;;;;;71.00;33.07;;;;;;;11.97;56.85;96915.06;5114232;28;20203;-95
2024/04/06 05:28:25;;;;;;;15.33;9.37;;;;;;;12.11;57.16;96917.00;5107975;28;20210;-91
2024/04/06 05:30:51;;;;;;;7.00;5.17;;;;;;;12.08;57.33;96920.25;5112661;28;20219;-92
2024/04/06 05:33:19;;;;;;;12.27;6.03;;;;;;;12.23;56.32;96922.72;5105489;28;20276;-91
2024/04/06 05:35:47;;;;;;;30.30;15.70;;;;;;;12.04;55.72;96874.69;5096749;28;20684;-91
2024/04/06 05:38:14;;;;;;;26.60;12.13;;;;;;;12.55;54.59;96921.22;5094043;28;20199;-91
2024/04/06 05:40:42;;;;;;;14.77;7.57;;;;;;;12.71;53.91;96933.25;5097051;28;20206;-91
2024/04/06 05:43:11;;;;;;;10.87;6.13;;;;;;;12.84;53.52;96919.13;5104766;28;20199;-91
2024/04/06 05:45:37;;;;;;;16.73;9.33;;;;;;;12.85;53.07;96925.25;5108934;28;20635;-91
2024/04/06 05:48:05;;;;;;;31.97;19.73;;;;;;;12.69;53.61;96914.03;5102416;28;20561;-92
2024/04/06 05:50:31;;;;;;;13.03;7.60;;;;;;;12.82;52.44;96923.19;5111212;28;20651;-93
2024/04/06 05:52:57;;;;;;;12.70;8.30;;;;;;;13.00;51.75;96921.56;5102579;28;20222;-91
2024/04/06 05:55:23;;;;;;;13.20;8.13;;;;;;;13.20;50.95;96905.16;5114054;28;20233;-89
2024/04/06 05:57:51;;;;;;;9.37;4.63;;;;;;;13.38;50.71;96938.31;5113667;28;20199;-90
2024/04/06 06:00:18;;;;;;;10.13;3.93;;;;;;;13.50;51.81;96924.44;5113489;28;20247;-91
2024/04/06 06:02:46;;;;;;;9.57;3.57;;;;;;;13.51;51.19;96923.34;5104413;28;20193;-90
2024/04/06 06:05:12;;;;;;;7.43;4.17;;;;;;;13.53;51.78;96937.22;5103371;28;20191;-90
2024/04/06 06:07:39;;;;;;;14.67;7.70;;;;;;;13.56;52.01;96931.28;5113973;28;20559;-91
2024/04/06 06:10:07;;;;;;;9.90;6.37;;;;;;;13.31;52.33;96893.22;5113496;28;20246;-91
2024/04/06 06:12:34;;;;;;;13.20;7.50;;;;;;;13.69;52.51;96943.88;5112234;28;20210;-91
2024/04/06 06:15:01;;;;;;;8.73;5.20;;;;;;;13.78;52.77;96943.97;5113477;28;20207;-91
2024/04/06 06:17:30;;;;;;;10.87;5.10;;;;;;;13.90;51.84;96939.72;5113728;28;20250;-89
2024/04/06 06:19:55;;;;;;;35.17;5.07;;;;;;;13.90;51.99;96928.19;5110446;28;20196;-87
2024/04/06 06:22:22;;;;;;;14.23;3.13;;;;;;;13.73;49.23;96902.06;5093192;28;20199;-83
2024/04/06 06:24:49;;;;;;;13.37;3.67;;;;;;;14.08;49.74;96947.91;5092812;28;20295;-88
2024/04/06 06:27:16;;;;;;;10.73;2.10;;;;;;;14.14;49.10;96933.34;5093578;28;20556;-89
2024/04/06 06:29:41;;;;;;;3.03;1.67;;;;;;;14.33;48.20;96946.59;5093348;28;20224;-93
2024/04/06 06:32:08;;;;;;;1.70;1.20;;;;;;;14.42;46.97;96918.00;5113478;28;20575;-92
2024/04/06 06:34:36;;;;;;;6.07;1.73;;;;;;;14.63;48.07;96913.78;5099814;28;20206;-96
2024/04/06 06:37:03;;;;;;;3.63;2.37;;;;;;;14.53;47.96;96855.09;5100327;28;20206;-93
2024/04/06 06:39:29;;;;;;;3.00;1.43;;;;;;;15.10;45.96;96910.78;5096607;28;20194;-88
2024/04/06 06:41:56;;;;;;;8.67;2.37;;;;;;;15.62;45.79;96932.50;5112029;28;20228;-87
2024/04/06 06:44:22;;;;;;;6.90;2.40;;;;;;;15.63;46.63;96916.09;5101308;28;20207;-87
2024/04/06 06:46:49;;;;;;;5.03;2.07;;;;;;;15.61;44.95;96899.53;5109642;28;20569;-86
2024/04/06 06:49:15;;;;;;;1.67;1.53;;;;;;;15.85;45.25;96928.66;5112249;28;20565;-88
2024/04/06 06:51:43;;;;;;;3.47;2.10;;;;;;;15.88;44.20;96887.78;5111883;28;20205;-89
2024/04/06 06:54:09;;;;;;;5.30;2.07;;;;;;;16.59;43.38;96927.03;5112228;28;20209;-88
2024/04/06 06:56:37;;;;;;;5.73;2.77;;;;;;;17.10;41.86;96925.44;5111169;28;20610;-88
2024/04/06 06:59:04;;;;;;;3.73;1.80;;;;;;;17.13;40.41;96915.94;5114973;28;20199;-95
2024/04/06 07:01:31;;;;;;;3.70;2.90;;;;;;;16.75;39.45;96881.69;5115518;28;20229;-89
2024/04/06 07:03:58;;;;;;;4.43;3.13;;;;;;;17.29;38.63;96887.41;5102288;28;20199;-88
2024/04/06 07:06:25;;;;;;;11.17;8.40;;;;;;;17.55;37.27;96925.78;5097092;28;20195;-87
2024/04/06 07:08:52;;;;;;;7.40;3.33;;;;;;;17.14;38.35;96874.50;5112347;28;20210;-87
2024/04/06 07:11:19;;;;;;;5.53;3.30;;;;;;;17.79;37.29;96889.44;5096359;28;20219;-87
2024/04/06 07:13:45;;;;;;;6.77;4.60;;;;;;;18.24;36.17;96934.69;5112302;28;20214;-87
2024/04/06 07:16:13;;;;;;;7.37;6.50;;;;;;;18.30;35.68;96930.66;5111082;28;20210;-89
2024/04/06 07:18:40;;;;;;;9.83;5.57;;;;;;;18.73;35.80;96906.09;5107041;28;20195;-87
2024/04/06 07:21:09;;;;;;;6.50;5.50;;;;;;;18.81;35.26;96953.75;5109974;28;20650;-87
2024/04/06 07:23:35;;;;;;;4.40;3.77;;;;;;;18.64;35.84;96943.09;5091616;28;20204;-87
2024/04/06 07:26:03;;;;;;;9.43;6.03;;;;;;;18.49;34.87;96914.03;5091765;28;20685;-87
2024/04/06 07:28:29;;;;;;;10.43;6.23;;;;;;;19.19;33.85;96942.00;5094820;28;20207;-87
2024/04/06 07:30:56;;;;;;;10.47;6.73;;;;;;;18.96;33.44;96916.53;5112111;28;20226;-87
2024/04/06 07:33:22;;;;;;;8.90;7.27;;;;;;;19.22;33.21;96910.88;5111736;28;20200;-87
2024/04/06 07:35:49;;;;;;;12.23;7.27;;;;;;;19.67;33.49;96945.97;5111929;28;20214;-87
2024/04/06 07:38:15;;;;;;;10.93;6.10;;;;;;;19.52;33.06;96909.56;5114653;28;20191;-86
2024/04/06 07:40:43;;;;;;;17.37;8.33;;;;;;;19.58;33.95;96909.34;5094223;28;20201;-80
2024/04/06 07:43:10;;;;;;;12.33;7.77;;;;;;;20.14;32.41;96942.81;5090425;28;20201;-79
2024/04/06 07:45:37;;;;;;;7.93;7.07;;;;;;;19.87;34.08;96943.50;5099342;28;20223;-80
2024/04/06 07:48:04;;;;;;;10.10;6.27;;;;;;;19.79;33.15;96878.44;5108433;28;20215;-80
2024/04/06 07:50:31;;;;;;;6.70;5.43;;;;;;;20.01;32.64;96881.78;5090676;28;20598;-80
2024/04/06 07:52:57;;;;;;;11.63;5.33;;;;;;;20.59;32.23;96928.34;5091320;28;20219;-80
2024/04/06 07:55:24;;;;;;;10.77;5.70;;;;;;;19.96;31.86;96898.25;5091402;28;20200;-80
2024/04/06 07:57:49;;;;;;;8.37;6.00;;;;;;;20.20;32.26;96946.84;5095688;28;20238;-79
2024/04/06 08:00:18;;;;;;;13.20;6.60;;;;;;;20.57;31.39;96933.31;5112543;28;20251;-80
2024/04/06 08:02:44;;;;;;;8.57;5.20;;;;;;;20.84;31.82;96925.56;5114954;28;20681;-80
2024/04/06 08:05:11;;;;;;;11.27;5.50;;;;;;;21.31;30.58;96933.03;5098138;28;20192;-80
2024/04/06 08:07:37;;;;;;;8.73;5.43;;;;;;;21.02;30.70;96924.13;5096091;28;20322;-80
2024/04/06 08:10:15;;;;;;;4.80;4.20;;;;;;;21.05;30.51;96936.19;5108434;28;20310;-80
2024/04/06 08:12:42;;;;;;;8.00;5.00;;;;;;;20.54;31.27;96916.97;5094464;28;20196;-80
2024/04/06 08:15:09;;;;;;;8.13;5.13;;;;;;;21.20;29.91;96928.09;5094421;28;20196;-80
2024/04/06 08:17:39;;;;;;;5.73;4.40;;;;;;;20.97;31.22;96929.78;5094167;28;20204;-81
2024/04/06 08:20:07;;;;;;;5.23;3.70;;;;;;;20.80;30.91;96920.06;5098936;28;20195;-80
2024/04/06 08:22:33;;;;;;;7.00;4.80;;;;;;;21.23;30.13;96903.03;5105806;28;20249;-80
2024/04/06 08:25:02;;;;;;;6.77;5.00;;;;;;;21.84;29.80;96906.47;5093756;28;20192;-80
2024/04/06 08:27:29;;;;;;;6.03;4.30;;;;;;;21.38;29.48;96912.34;5093851;28;20205;-80
2024/04/06 08:29:55;;;;;;;5.87;3.90;;;;;;;21.57;30.21;96919.00;5094245;28;20230;-80
2024/04/06 08:32:22;;;;;;;7.83;4.70;;;;;;;21.00;31.04;96915.56;5094320;28;20651;-79
2024/04/06 08:34:53;;;;;;;6.47;4.97;;;;;;;21.66;28.49;96889.81;5103758;28;20200;-79
2024/04/06 08:37:20;;;;;;;10.07;5.27;;;;;;;22.23;27.46;96912.84;5105196;28;20547;-79
2024/04/06 08:39:46;;;;;;;9.60;4.73;;;;;;;22.42;27.18;96899.31;5094420;28;20204;-79
2024/04/06 08:42:17;;;;;;;9.40;5.30;;;;;;;22.62;26.87;96915.63;5092305;28;20196;-79
2024/04/06 08:44:44;;;;;;;6.43;4.10;;;;;;;22.41;27.10;96921.34;5113609;28;20650;-80
2024/04/06 08:47:13;;;;;;;5.23;3.77;;;;;;;22.28;28.24;96909.06;5113104;28;20227;-79
2024/04/06 08:49:40;;;;;;;6.87;4.00;;;;;;;22.60;27.95;96893.47;5101801;28;20234;-79
2024/04/06 08:52:09;;;;;;;7.67;4.60;;;;;;;22.37;27.88;96896.09;5098328;28;20204;-79
2024/04/06 08:54:36;;;;;;;5.47;3.73;;;;;;;22.61;27.79;96898.56;5101588;28;20202;-79
2024/04/06 08:57:04;;;;;;;4.87;3.23;;;;;;;23.10;27.05;96886.31;5098815;28;20211;-79
2024/04/06 08:59:30;;;;;;;5.87;3.67;;;;;;;22.86;27.53;96885.47;5092981;28;20204;-79
2024/04/06 09:01:57;;;;;;;3.47;3.17;;;;;;;22.23;27.86;96882.25;5094826;28;20215;-79
2024/04/06 09:04:23;;;;;;;10.83;4.33;;;;;;;22.18;28.36;96891.41;5104271;28;20203;-79
2024/04/06 09:06:49;;;;;;;5.57;4.20;;;;;;;22.07;28.69;96874.09;5101266;28;20614;-79
2024/04/06 09:09:17;;;;;;;8.07;4.27;;;;;;;22.96;27.55;96846.09;5098306;28;20196;-79
2024/04/06 09:11:44;;;;;;;9.20;4.60;;;;;;;23.28;27.62;96865.69;5092878;28;20638;-79
2024/04/06 09:14:11;;;;;;;4.53;4.07;;;;;;;23.72;26.87;96876.13;5092957;28;20248;-79
2024/04/06 09:16:39;;;;;;;5.27;4.80;;;;;;;24.02;26.47;96876.22;5102892;28;20226;-79
2024/04/06 09:19:05;;;;;;;5.83;4.00;;;;;;;24.35;26.28;96886.38;5096459;28;20638;-79
2024/04/06 09:21:32;;;;;;;5.33;4.33;;;;;;;25.04;25.53;96882.56;5093173;28;20215;-78
2024/04/06 09:24:00;;;;;;;6.93;5.00;;;;;;;22.60;28.14;96879.91;5092576;28;20197;-79
2024/04/06 09:26:31;;;;;;;5.07;4.57;;;;;;;21.73;30.04;96884.56;5092800;28;20215;-79
2024/04/06 09:28:57;;;;;;;4.40;3.50;;;;;;;21.65;29.89;96851.09;5106364;28;20729;-79
2024/04/06 09:31:24;;;;;;;8.60;4.60;;;;;;;21.95;29.41;96873.09;5092575;28;20230;-79
2024/04/06 09:33:53;;;;;;;3.07;2.30;;;;;;;22.95;28.06;96869.75;5097104;28;20666;-79
2024/04/06 09:36:20;;;;;;;3.10;2.23;;;;;;;22.98;27.58;96868.25;5112821;28;20272;-79
2024/04/06 09:38:47;;;;;;;1.17;1.13;;;;;;;22.54;27.87;96867.78;5094210;28;20188;-79
2024/04/06 09:41:16;;;;;;;1.13;1.00;;;;;;;23.33;26.36;96865.38;5092894;28;20199;-78
2024/04/06 09:43:43;;;;;;;1.37;1.20;;;;;;;22.09;28.10;96850.13;5092197;28;20192;-78
2024/04/06 09:46:11;;;;;;;2.67;1.40;;;;;;;21.90;29.09;96867.13;5092231;28;20196;-79
2024/04/06 09:48:38;;;;;;;4.53;1.13;;;;;;;21.53;28.92;96870.16;5105811;28;20204;-79
2024/04/06 09:51:05;;;;;;;1.10;1.00;;;;;;;21.65;29.70;96866.56;5092130;28;20216;-78
2024/04/06 09:53:32;;;;;;;3.10;1.03;;;;;;;21.64;29.11;96864.97;5106111;28;20196;-78
2024/04/06 09:56:00;;;;;;;2.27;1.03;;;;;;;21.70;29.23;96858.19;5092190;28;20224;-79
2024/04/06 09:58:28;;;;;;;2.40;1.07;;;;;;;21.58;29.44;96855.56;5105876;28;20200;-79
2024/04/06 10:00:56;;;;;;;4.37;1.40;;;;;;;21.65;28.62;96844.91;5092123;28;20701;-79
2024/04/06 10:03:22;;;;;;;2.00;1.00;;;;;;;21.58;28.48;96850.94;5092160;28;20592;-79
2024/04/06 10:05:50;;;;;;;1.90;1.20;;;;;;;22.52;27.78;96841.00;5091865;28;20200;-79
2024/04/06 10:08:17;;;;;;;1.67;1.40;;;;;;;23.15;26.41;96839.84;5098941;28;20257;-78
2024/04/06 10:10:49;;;;;;;1.30;1.00;;;;;;;22.94;26.83;96815.84;5097849;28;20612;-79
2024/04/06 10:13:19;;;;;;;0.90;0.90;;;;;;;23.59;25.36;96828.56;5100137;28;20191;-78
2024/04/06 10:15:46;;;;;;;3.43;1.13;;;;;;;23.47;25.18;96826.81;5110326;28;20207;-78
2024/04/06 10:18:14;;;;;;;1.00;0.90;;;;;;;23.95;25.51;96827.16;5090980;28;20253;-78
2024/04/06 10:20:43;;;;;;;4.10;1.20;;;;;;;24.43;24.50;96827.41;5093665;28;20204;-78
2024/04/06 10:23:22;;;;;;;3.50;1.03;;;;;;;24.16;25.00;96821.22;5101765;28;20571;-78
2024/04/06 10:31:42;;;;;;;1.30;1.20;;;;;;;23.67;25.91;96814.72;5022245;28;20309;-78
2024/04/06 10:34:14;;;;;;;1.20;1.10;;;;;;;23.15;26.34;96813.50;5106577;28;20670;-78
2024/04/06 10:36:43;;;;;;;1.10;1.00;;;;;;;24.30;26.53;96801.59;5111674;28;20642;-78
2024/04/06 10:39:22;;;;;;;1.37;1.10;;;;;;;24.40;24.58;96809.91;5103199;28;20199;-78
2024/04/06 10:41:57;;;;;;;0.80;0.80;;;;;;;23.45;25.30;96788.34;5090776;28;20246;-79
2024/04/06 10:44:25;;;;;;;4.73;1.20;;;;;;;23.13;26.61;96801.44;5102424;28;20199;-79
2024/04/06 10:47:03;;;;;;;1.77;1.00;;;;;;;22.89;26.43;96799.81;5091790;28;20197;-78
2024/04/06 10:49:47;;;;;;;1.00;0.90;;;;;;;22.65;27.46;96787.34;5104236;28;20252;-79
2024/04/06 10:52:28;;;;;;;1.10;1.00;;;;;;;22.51;28.17;96806.09;5099745;28;20196;-79
2024/04/06 10:55:09;;;;;;;1.53;0.97;;;;;;;22.39;27.40;96788.81;5107015;28;20613;-79
2024/04/06 10:57:37;;;;;;;1.47;0.90;;;;;;;22.17;27.20;96779.47;5091575;28;20203;-79
2024/04/06 11:00:08;;;;;;;1.23;1.13;;;;;;;22.28;27.14;96789.75;5097154;28;20598;-78
2024/04/06 11:02:36;;;;;;;1.00;1.00;;;;;;;22.17;27.48;96790.31;5097832;28;20200;-79
2024/04/06 11:05:05;;;;;;;1.10;0.90;;;;;;;22.13;26.76;96784.03;5103138;28;20590;-79
2024/04/06 11:07:33;;;;;;;1.87;1.10;;;;;;;22.09;27.33;96777.72;5090279;28;20287;-78
2024/04/06 11:09:59;;;;;;;2.63;1.20;;;;;;;22.02;27.27;96776.78;5090687;28;20772;-78
2024/04/06 11:12:29;;;;;;;5.13;1.30;;;;;;;22.47;27.52;96776.19;5104622;28;20251;-79
2024/04/06 11:14:59;;;;;;;1.73;1.20;;;;;;;22.45;26.61;96756.75;5099103;28;20676;-79
2024/04/06 11:17:25;;;;;;;2.10;1.33;;;;;;;22.15;26.88;96751.94;5095609;28;20253;-79
2024/04/06 11:19:55;;;;;;;1.43;1.00;;;;;;;22.24;27.11;96753.66;5100342;28;20203;-78
2024/04/06 11:22:24;;;;;;;1.60;1.50;;;;;;;22.11;26.86;96742.13;5108084;28;20208;-79
2024/04/06 11:24:50;;;;;;;8.07;1.47;;;;;;;21.90;27.70;96737.84;5100799;28;20199;-79
2024/04/06 11:27:20;;;;;;;1.60;0.83;;;;;;;22.03;27.50;96751.25;5094373;28;20227;-78
2024/04/06 11:29:48;;;;;;;1.63;1.37;;;;;;;21.76;26.85;96706.94;5092012;28;20227;-79
2024/04/06 11:32:19;;;;;;;3.13;1.20;;;;;;;21.98;28.16;96736.84;5095096;28;20303;-79
2024/04/06 11:34:46;;;;;;;1.10;1.00;;;;;;;22.07;27.24;96723.09;5094827;28;20215;-79
2024/04/06 11:37:12;;;;;;;1.33;1.00;;;;;;;22.16;26.83;96706.63;5108783;28;20196;-79